Terminal Aerodrome Forecast
Issued by NWS Buffalo, NY

Home | Current Version | Previous Version | Text Only | Print | Product List | Glossary On
Versions: 1 2 3 4 5 6 7 8 9 10 11 12 13 14 15 16 17 18 19 20 21 22 23 24 25 26 27 28 29 30
000
FTUS41 KBUF 012300
TAFROC
TAF
KROC 012330Z 0200/0224 08011KT 1 1/2SM -SN SCT015 BKN025 OVC040
     FM021300 04021KT 1/4SM +SN BLSN OVC015
     FM021700 36017KT 1/4SM +SN BLSN OVC015
     FM022200 32013KT 1/4SM +SN BLSN OVC020
     FM022300 31012KT 2SM -SHSN OVC020=

USA.gov is the U.S. government's official web portal to all federal, state and local government web resources and services.